Station Historical Data
Daily Summary for March 25, 2012 Units:  English    Metric   Both
« Previous Day
Next Day »
Daily Weekly Monthly Yearly Custom
  High: Low: Average:
Temperature: 73.5 °F 45.6 °F 59.2 °F
Dew Point: 57.5 °F 44.5 °F 51.5 °F
Humidity: 96% 52% 78%
Wind Speed: 10.0mph 0.0mph 2.5mph
Wind Gust: 12.0mph - -
Wind- - WSW
Pressure: 30.00 in 29.89 in -
Precipitation: 0.00 in    
Historical Graphs
 
 
Tabular Data for March 25, 2012
Time Temperature Dew Point Pressure Wind Wind Speed Wind Gust Humidity Rainfall Rate (Hourly) Conditions
00:00 50.9 °F 48.4 °F 29.90 in Calm     91% 0.00 in
00:01 50.9 °F 48.4 °F 29.90 in Calm     91% 0.00 in
00:06 50.5 °F 48.0 °F 29.90 in Calm     91% 0.00 in
00:11 50.2 °F 47.7 °F 29.90 in Calm     91% 0.00 in
00:16 50.1 °F 47.9 °F 29.90 in Calm     92% 0.00 in
00:21 49.9 °F 48.0 °F 29.90 in Calm     93% 0.00 in
00:27 49.9 °F 48.0 °F 29.90 in Calm     93% 0.00 in
00:32 49.9 °F 48.2 °F 29.90 in Calm     94% 0.00 in
00:37 49.9 °F 48.2 °F 29.90 in Calm     94% 0.00 in
00:42 49.7 °F 48.0 °F 29.90 in Calm     94% 0.00 in
00:47 49.4 °F 47.8 °F 29.90 in Calm     94% 0.00 in
00:52 49.1 °F 47.5 °F 29.90 in Calm     94% 0.00 in
00:57 48.6 °F 47.0 °F 29.90 in Calm     94% 0.00 in
01:00 48.6 °F 47.2 °F 29.90 in Calm     95% 0.00 in
01:02 48.6 °F 47.2 °F 29.90 in Calm     95% 0.00 in
01:07 48.6 °F 47.2 °F 29.90 in Calm     95% 0.00 in
01:12 48.6 °F 47.2 °F 29.90 in Calm     95% 0.00 in
01:17 48.4 °F 47.0 °F 29.90 in Calm     95% 0.00 in
01:22 48.4 °F 47.0 °F 29.90 in Calm     95% 0.00 in
01:27 48.5 °F 47.1 °F 29.90 in Calm     95% 0.00 in
01:30 48.5 °F 47.1 °F 29.90 in Calm     95% 0.00 in
01:32 48.5 °F 47.1 °F 29.90 in Calm     95% 0.00 in
01:38 48.6 °F 47.5 °F 29.90 in Calm     96% 0.00 in
01:43 48.4 °F 47.0 °F 29.90 in Calm     95% 0.00 in
01:48 48.1 °F 46.7 °F 29.90 in Calm     95% 0.00 in
01:53 47.7 °F 46.3 °F 29.90 in Calm     95% 0.00 in
01:58 47.3 °F 45.9 °F 29.90 in Calm     95% 0.00 in
02:00 47.1 °F 45.7 °F 29.90 in Calm     95% 0.00 in
02:03 47.1 °F 45.7 °F 29.90 in Calm     95% 0.00 in
02:08 47.3 °F 46.2 °F 29.90 in Calm     96% 0.00 in
02:13 47.7 °F 46.6 °F 29.90 in Calm     96% 0.00 in
02:18 48.0 °F 46.9 °F 29.90 in Calm     96% 0.00 in
02:23 48.0 °F 46.9 °F 29.90 in Calm     96% 0.00 in
02:28 48.0 °F 46.9 °F 29.90 in Calm   1.0 mph 96% 0.00 in
02:30 48.0 °F 46.9 °F 29.90 in Calm     96% 0.00 in
02:33 48.1 °F 47.0 °F 29.90 in Calm     96% 0.00 in
02:38 48.2 °F 47.1 °F 29.91 in Calm     96% 0.00 in
02:43 48.0 °F 46.9 °F 29.91 in Calm     96% 0.00 in
02:48 47.7 °F 46.6 °F 29.91 in Calm     96% 0.00 in
02:53 47.6 °F 46.5 °F 29.91 in Calm     96% 0.00 in
02:58 47.7 °F 46.6 °F 29.91 in Calm     96% 0.00 in
03:00 47.8 °F 46.7 °F 29.91 in Calm     96% 0.00 in
03:03 48.0 °F 46.9 °F 29.91 in Calm     96% 0.00 in
03:08 48.1 °F 47.0 °F 29.91 in Calm     96% 0.00 in
03:13 48.4 °F 47.3 °F 29.91 in Calm     96% 0.00 in
03:18 48.7 °F 47.6 °F 29.90 in NNW 1.0 mph 1.0 mph 96% 0.00 in
03:23 48.9 °F 47.8 °F 29.90 in Calm   1.0 mph 96% 0.00 in
03:28 48.8 °F 47.7 °F 29.90 in Calm   1.0 mph 96% 0.00 in
03:30 48.7 °F 47.6 °F 29.90 in Calm   1.0 mph 96% 0.00 in
03:33 48.6 °F 47.5 °F 29.90 in Calm     96% 0.00 in
03:38 48.5 °F 47.4 °F 29.90 in Calm     96% 0.00 in
03:44 48.2 °F 47.1 °F 29.90 in Calm     96% 0.00 in
03:49 47.8 °F 46.7 °F 29.90 in Calm     96% 0.00 in
03:54 47.5 °F 46.4 °F 29.90 in Calm     96% 0.00 in
03:59 47.5 °F 46.4 °F 29.90 in Calm     96% 0.00 in
04:00 47.4 °F 46.3 °F 29.90 in Calm     96% 0.00 in
04:04 47.5 °F 46.4 °F 29.90 in Calm     96% 0.00 in
04:09 47.6 °F 46.5 °F 29.90 in Calm     96% 0.00 in
04:14 47.5 °F 46.4 °F 29.90 in Calm     96% 0.00 in
04:19 47.2 °F 46.1 °F 29.90 in NNW 1.0 mph 1.0 mph 96% 0.00 in
04:24 47.2 °F 46.1 °F 29.90 in Calm   1.0 mph 96% 0.00 in
04:29 47.0 °F 45.9 °F 29.90 in Calm     96% 0.00 in
04:30 46.9 °F 45.8 °F 29.90 in Calm     96% 0.00 in
04:34 46.8 °F 45.7 °F 29.90 in Calm     96% 0.00 in
04:39 46.8 °F 45.7 °F 29.89 in Calm     96% 0.00 in
04:44 46.9 °F 45.8 °F 29.90 in Calm     96% 0.00 in
04:49 46.9 °F 45.8 °F 29.90 in Calm     96% 0.00 in
04:54 46.3 °F 45.2 °F 29.90 in Calm     96% 0.00 in
04:59 45.6 °F 44.5 °F 29.90 in Calm     96% 0.00 in
05:00 45.6 °F 44.5 °F 29.90 in Calm     96% 0.00 in
05:05 46.0 °F 44.9 °F 29.90 in Calm     96% 0.00 in
05:10 46.0 °F 44.9 °F 29.91 in Calm     96% 0.00 in
05:15 46.0 °F 44.9 °F 29.91 in Calm     96% 0.00 in
05:20 46.3 °F 45.2 °F 29.91 in Calm     96% 0.00 in
05:25 46.4 °F 45.3 °F 29.91 in Calm     96% 0.00 in
05:30 46.5 °F 45.4 °F 29.91 in Calm     96% 0.00 in
05:35 46.7 °F 45.6 °F 29.91 in Calm     96% 0.00 in
05:40 46.5 °F 45.4 °F 29.91 in Calm     96% 0.00 in
05:45 46.3 °F 45.2 °F 29.91 in Calm     96% 0.00 in
05:47 46.2 °F 45.1 °F 29.91 in Calm     96% 0.00 in
05:52 46.3 °F 45.2 °F 29.91 in Calm     96% 0.00 in
05:57 46.4 °F 45.3 °F 29.91 in Calm     96% 0.00 in
06:02 46.7 °F 45.6 °F 29.91 in Calm     96% 0.00 in
06:07 46.9 °F 45.8 °F 29.91 in Calm     96% 0.00 in
06:12 47.1 °F 46.0 °F 29.91 in Calm     96% 0.00 in
06:17 47.3 °F 46.2 °F 29.91 in Calm     96% 0.00 in
06:22 47.7 °F 46.6 °F 29.91 in Calm     96% 0.00 in
06:27 47.8 °F 46.7 °F 29.91 in Calm     96% 0.00 in
06:30 47.9 °F 46.8 °F 29.91 in Calm     96% 0.00 in
06:32 48.0 °F 46.9 °F 29.91 in Calm     96% 0.00 in
06:37 48.2 °F 47.1 °F 29.92 in Calm     96% 0.00 in
06:42 48.3 °F 47.2 °F 29.91 in Calm     96% 0.00 in
06:47 48.4 °F 47.3 °F 29.92 in Calm     96% 0.00 in
06:52 48.4 °F 47.3 °F 29.92 in Calm     96% 0.00 in
06:57 48.4 °F 47.3 °F 29.92 in Calm     96% 0.00 in
07:02 48.4 °F 47.3 °F 29.92 in Calm     96% 0.00 in
07:12 48.4 °F 47.3 °F 29.92 in Calm     96% 0.00 in
07:17 48.5 °F 47.4 °F 29.92 in Calm     96% 0.00 in
07:22 48.5 °F 47.4 °F 29.92 in Calm     96% 0.00 in
07:27 48.7 °F 47.6 °F 29.91 in Calm     96% 0.00 in
07:32 49.1 °F 48.0 °F 29.92 in WSW 1.0 mph 2.0 mph 96% 0.00 in
07:37 49.2 °F 48.1 °F 29.92 in Calm     96% 0.00 in
07:42 49.1 °F 48.0 °F 29.92 in Calm   1.0 mph 96% 0.00 in
07:47 49.1 °F 48.0 °F 29.92 in WSW 1.0 mph 1.0 mph 96% 0.00 in
07:52 49.1 °F 48.0 °F 29.93 in Calm   1.0 mph 96% 0.00 in
07:54 49.1 °F 48.0 °F 29.93 in Calm   1.0 mph 96% 0.00 in
07:59 49.1 °F 48.0 °F 29.93 in Calm     96% 0.00 in
08:04 49.2 °F 48.1 °F 29.93 in Calm   1.0 mph 96% 0.00 in
08:05 49.3 °F 48.2 °F 29.93 in Calm   1.0 mph 96% 0.00 in
08:10 49.5 °F 48.4 °F 29.93 in Calm     96% 0.00 in
08:15 49.8 °F 48.7 °F 29.94 in Calm     96% 0.00 in
08:20 50.0 °F 48.9 °F 29.94 in Calm     96% 0.00 in
08:25 50.2 °F 49.1 °F 29.94 in Calm     96% 0.00 in
08:30 50.5 °F 49.4 °F 29.94 in Calm     96% 0.00 in
08:35 50.8 °F 49.7 °F 29.94 in Calm     96% 0.00 in
08:40 51.1 °F 49.7 °F 29.94 in West 1.0 mph 2.0 mph 95% 0.00 in
08:45 51.4 °F 49.7 °F 29.94 in West 1.0 mph 1.0 mph 94% 0.00 in
08:46 51.5 °F 49.8 °F 29.94 in West 1.0 mph 1.0 mph 94% 0.00 in
08:51 51.7 °F 49.8 °F 29.94 in WNW 2.0 mph 2.0 mph 93% 0.00 in
08:56 51.9 °F 49.9 °F 29.95 in WNW 2.0 mph 3.0 mph 93% 0.00 in
09:01 52.0 °F 49.8 °F 29.94 in West 2.0 mph 2.0 mph 92% 0.00 in
09:06 52.5 °F 50.2 °F 29.94 in WNW 1.0 mph 3.0 mph 92% 0.00 in
09:11 52.8 °F 50.2 °F 29.94 in WNW 2.0 mph 3.0 mph 91% 0.00 in
09:16 53.1 °F 50.0 °F 29.94 in NW 2.0 mph 4.0 mph 89% 0.00 in
09:21 53.4 °F 50.2 °F 29.95 in WNW 2.0 mph 3.0 mph 89% 0.00 in
09:26 54.0 °F 50.5 °F 29.95 in WNW 2.0 mph 3.0 mph 88% 0.00 in
09:31 54.6 °F 51.1 °F 29.95 in WNW 4.0 mph 4.0 mph 88% 0.00 in
09:36 54.9 °F 51.1 °F 29.95 in WNW 2.0 mph 4.0 mph 87% 0.00 in
09:41 55.1 °F 51.0 °F 29.95 in WNW 2.0 mph 3.0 mph 86% 0.00 in
09:46 55.6 °F 51.8 °F 29.95 in WNW 1.0 mph 2.0 mph 87% 0.00 in
09:51 55.9 °F 51.8 °F 29.95 in WNW 1.0 mph 2.0 mph 86% 0.00 in
09:56 56.3 °F 51.9 °F 29.95 in WNW 2.0 mph 3.0 mph 85% 0.00 in
10:01 56.8 °F 52.0 °F 29.95 in West 1.0 mph 3.0 mph 84% 0.00 in
10:06 57.4 °F 52.3 °F 29.96 in NW 1.0 mph 3.0 mph 83% 0.00 in
10:11 58.2 °F 53.4 °F 29.96 in NNE 2.0 mph 2.0 mph 84% 0.00 in
10:16 58.9 °F 52.8 °F 29.96 in NNW 2.0 mph 3.0 mph 80% 0.00 in
10:21 59.4 °F 52.9 °F 29.96 in NW 2.0 mph 4.0 mph 79% 0.00 in
10:26 59.5 °F 53.0 °F 29.96 in NNW 3.0 mph 3.0 mph 79% 0.00 in
10:32 59.8 °F 52.6 °F 29.96 in NNW 3.0 mph 3.0 mph 77% 0.00 in
10:37 60.3 °F 53.4 °F 29.96 in NW 4.0 mph 4.0 mph 78% 0.00 in
10:42 60.9 °F 52.6 °F 29.96 in NW 1.0 mph 5.0 mph 74% 0.00 in
10:47 61.5 °F 52.8 °F 29.96 in WNW 2.0 mph 5.0 mph 73% 0.00 in
10:52 61.9 °F 52.4 °F 29.96 in WNW 7.0 mph 7.0 mph 71% 0.00 in
10:57 62.3 °F 52.4 °F 29.96 in NNW 4.0 mph 6.0 mph 70% 0.00 in
11:02 63.0 °F 53.8 °F 29.97 in NNE 4.0 mph 5.0 mph 72% 0.00 in
11:07 63.7 °F 54.5 °F 29.97 in WNW 3.0 mph 4.0 mph 72% 0.00 in
11:12 64.2 °F 55.0 °F 29.97 in NNE 4.0 mph 5.0 mph 72% 0.00 in
11:17 64.6 °F 55.4 °F 29.96 in WNW 4.0 mph 6.0 mph 72% 0.00 in
11:22 64.8 °F 54.4 °F 29.96 in WNW 6.0 mph 9.0 mph 69% 0.00 in
11:27 64.8 °F 54.0 °F 29.97 in NW 3.0 mph 9.0 mph 68% 0.00 in
11:32 65.2 °F 55.2 °F 29.96 in NW 6.0 mph 9.0 mph 70% 0.00 in
11:37 65.6 °F 55.2 °F 29.97 in NW 8.0 mph 10.0 mph 69% 0.00 in
11:42 65.7 °F 55.3 °F 29.96 in NW 6.0 mph 9.0 mph 69% 0.00 in
11:47 66.1 °F 55.2 °F 29.96 in WSW 10.0 mph 10.0 mph 68% 0.00 in
11:52 66.2 °F 55.7 °F 29.96 in NNW 6.0 mph 8.0 mph 69% 0.00 in
11:57 66.3 °F 55.0 °F 29.96 in NW 6.0 mph 10.0 mph 67% 0.00 in
12:02 66.6 °F 55.7 °F 29.96 in NW 5.0 mph 6.0 mph 68% 0.00 in
12:07 66.7 °F 56.2 °F 29.96 in NW 5.0 mph 7.0 mph 69% 0.00 in
12:12 66.2 °F 54.5 °F 29.96 in WNW 6.0 mph 9.0 mph 66% 0.00 in
12:17 66.0 °F 55.5 °F 29.95 in WSW 3.0 mph 5.0 mph 69% 0.00 in
12:22 67.1 °F 55.4 °F 29.95 in West 5.0 mph 7.0 mph 66% 0.00 in
12:27 66.9 °F 54.8 °F 29.95 in WNW 4.0 mph 8.0 mph 65% 0.00 in
12:33 67.5 °F 57.0 °F 29.95 in WSW 3.0 mph 5.0 mph 69% 0.00 in
12:38 67.6 °F 55.4 °F 29.95 in NNW 3.0 mph 3.0 mph 65% 0.00 in
12:40 67.6 °F 56.3 °F 29.95 in NNE 4.0 mph 5.0 mph 67% 0.00 in
12:45 68.1 °F 56.7 °F 29.95 in West 3.0 mph 6.0 mph 67% 0.00 in
12:50 68.6 °F 55.5 °F 29.95 in WNW 3.0 mph 7.0 mph 63% 0.00 in
12:55 68.5 °F 55.9 °F 29.95 in West 6.0 mph 8.0 mph 64% 0.00 in
13:01 68.8 °F 55.7 °F 29.95 in NW 3.0 mph 7.0 mph 63% 0.00 in
13:06 69.2 °F 54.3 °F 29.95 in WSW 5.0 mph 6.0 mph 59% 0.00 in
13:11 69.5 °F 56.8 °F 29.94 in West 6.0 mph 8.0 mph 64% 0.00 in
13:16 69.1 °F 55.1 °F 29.94 in NNW 3.0 mph 6.0 mph 61% 0.00 in
13:21 68.3 °F 55.2 °F 29.94 in WNW 4.0 mph 5.0 mph 63% 0.00 in
13:27 69.1 °F 55.1 °F 29.94 in Calm   7.0 mph 61% 0.00 in
13:32 69.4 °F 55.4 °F 29.94 in NW 5.0 mph 7.0 mph 61% 0.00 in
13:37 69.9 °F 56.8 °F 29.94 in NNW 7.0 mph 7.0 mph 63% 0.00 in
13:42 69.3 °F 55.7 °F 29.94 in NW 6.0 mph 8.0 mph 62% 0.00 in
13:47 69.5 °F 55.0 °F 29.94 in WNW 5.0 mph 8.0 mph 60% 0.00 in
13:52 70.2 °F 54.8 °F 29.94 in NNE 3.0 mph 9.0 mph 58% 0.00 in
13:57 70.4 °F 55.9 °F 29.94 in North 6.0 mph 8.0 mph 60% 0.00 in
14:02 70.6 °F 56.1 °F 29.94 in North 4.0 mph 10.0 mph 60% 0.00 in
14:07 70.6 °F 56.5 °F 29.94 in NNE 6.0 mph 9.0 mph 61% 0.00 in
14:12 70.9 °F 55.9 °F 29.94 in NNW 5.0 mph 8.0 mph 59% 0.00 in
14:17 71.4 °F 56.3 °F 29.93 in NW 8.0 mph 9.0 mph 59% 0.00 in
14:22 71.4 °F 56.3 °F 29.93 in North 5.0 mph 7.0 mph 59% 0.00 in
14:27 70.7 °F 54.2 °F 29.93 in North 4.0 mph 5.0 mph 56% 0.00 in
14:32 70.6 °F 56.1 °F 29.93 in WNW 6.0 mph 6.0 mph 60% 0.00 in
14:38 70.5 °F 55.5 °F 29.93 in NW 4.0 mph 7.0 mph 59% 0.00 in
14:43 70.1 °F 55.6 °F 29.93 in North 5.0 mph 6.0 mph 60% 0.00 in
14:48 69.9 °F 54.9 °F 29.93 in NNW 4.0 mph 8.0 mph 59% 0.00 in
14:53 70.1 °F 56.0 °F 29.93 in NNE 7.0 mph 7.0 mph 61% 0.00 in
14:55 70.0 °F 54.1 °F 29.93 in NW 4.0 mph 9.0 mph 57% 0.00 in
15:00 69.9 °F 55.4 °F 29.92 in NNW 5.0 mph 5.0 mph 60% 0.00 in
15:05 69.8 °F 54.8 °F 29.92 in WNW 5.0 mph 6.0 mph 59% 0.00 in
15:10 70.2 °F 55.7 °F 29.92 in NNW 3.0 mph 8.0 mph 60% 0.00 in
15:15 71.1 °F 55.6 °F 29.92 in WNW 6.0 mph 7.0 mph 58% 0.00 in
15:20 71.6 °F 56.1 °F 29.92 in North 4.0 mph 6.0 mph 58% 0.00 in
15:25 71.6 °F 55.1 °F 29.92 in NNW 3.0 mph 8.0 mph 56% 0.00 in
15:30 72.1 °F 57.0 °F 29.92 in NNW 6.0 mph 6.0 mph 59% 0.00 in
15:35 72.1 °F 55.6 °F 29.92 in WNW 4.0 mph 9.0 mph 56% 0.00 in
15:36 72.1 °F 55.1 °F 29.91 in West 6.0 mph 11.0 mph 55% 0.00 in
15:41 71.7 °F 55.7 °F 29.91 in NW 5.0 mph 7.0 mph 57% 0.00 in
15:47 71.4 °F 55.4 °F 29.91 in NNW 5.0 mph 8.0 mph 57% 0.00 in
15:52 71.3 °F 55.3 °F 29.91 in NW 2.0 mph 3.0 mph 57% 0.00 in
15:57 72.6 °F 56.0 °F 29.91 in WNW 4.0 mph 7.0 mph 56% 0.00 in
16:02 72.6 °F 54.5 °F 29.91 in WNW 5.0 mph 9.0 mph 53% 0.00 in
16:07 72.3 °F 54.2 °F 29.91 in NNW 3.0 mph 8.0 mph 53% 0.00 in
16:08 72.2 °F 54.1 °F 29.91 in NW 3.0 mph 8.0 mph 53% 0.00 in
16:13 72.6 °F 57.5 °F 29.91 in NNW 4.0 mph 12.0 mph 59% 0.00 in
16:18 72.3 °F 53.7 °F 29.91 in NW 6.0 mph 12.0 mph 52% 0.00 in
16:23 72.1 °F 55.1 °F 29.91 in NNE 6.0 mph 10.0 mph 55% 0.00 in
16:28 72.7 °F 55.6 °F 29.91 in NW 4.0 mph 11.0 mph 55% 0.00 in
16:34 73.2 °F 56.6 °F 29.91 in WNW 3.0 mph 7.0 mph 56% 0.00 in
16:39 72.7 °F 54.6 °F 29.91 in NE 4.0 mph 5.0 mph 53% 0.00 in
16:44 72.0 °F 54.5 °F 29.91 in NW 6.0 mph 8.0 mph 54% 0.00 in
16:49 72.0 °F 56.0 °F 29.91 in WNW 6.0 mph 10.0 mph 57% 0.00 in
16:54 73.2 °F 55.6 °F 29.91 in NW 9.0 mph 9.0 mph 54% 0.00 in
16:59 72.7 °F 54.1 °F 29.91 in North 10.0 mph 11.0 mph 52% 0.00 in
17:04 71.8 °F 54.3 °F 29.91 in NW 8.0 mph 9.0 mph 54% 0.00 in
17:09 72.0 °F 55.5 °F 29.91 in NW 7.0 mph 10.0 mph 56% 0.00 in
17:14 72.6 °F 55.0 °F 29.91 in NNE 7.0 mph 10.0 mph 54% 0.00 in
17:19 73.0 °F 55.4 °F 29.91 in NNW 6.0 mph 10.0 mph 54% 0.00 in
17:24 73.5 °F 56.9 °F 29.91 in NNW 9.0 mph 9.0 mph 56% 0.00 in
17:29 72.7 °F 54.6 °F 29.91 in NW 7.0 mph 10.0 mph 53% 0.00 in
17:34 72.6 °F 55.0 °F 29.91 in NNW 6.0 mph 6.0 mph 54% 0.00 in
17:39 72.0 °F 55.0 °F 29.91 in North 5.0 mph 7.0 mph 55% 0.00 in
17:44 71.3 °F 54.8 °F 29.91 in NNW 3.0 mph 6.0 mph 56% 0.00 in
17:49 70.8 °F 54.8 °F 29.91 in North 8.0 mph 8.0 mph 57% 0.00 in
17:54 71.4 °F 55.4 °F 29.91 in North 7.0 mph 7.0 mph 57% 0.00 in
17:59 72.3 °F 55.2 °F 29.91 in NNE 8.0 mph 10.0 mph 55% 0.00 in
18:04 72.9 °F 55.8 °F 29.91 in NNE 5.0 mph 11.0 mph 55% 0.00 in
18:09 72.7 °F 56.1 °F 29.91 in North 5.0 mph 8.0 mph 56% 0.00 in
18:14 72.9 °F 56.3 °F 29.91 in NE 8.0 mph 8.0 mph 56% 0.00 in
18:19 72.6 °F 55.5 °F 29.91 in North 7.0 mph 10.0 mph 55% 0.00 in
18:24 71.8 °F 55.3 °F 29.92 in North 4.0 mph 8.0 mph 56% 0.00 in
18:29 71.4 °F 55.4 °F 29.92 in NNE 6.0 mph 8.0 mph 57% 0.00 in
18:34 71.6 °F 56.1 °F 29.92 in NNE 6.0 mph 8.0 mph 58% 0.00 in
18:39 71.7 °F 55.7 °F 29.92 in NE 9.0 mph 9.0 mph 57% 0.00 in
18:45 71.3 °F 55.3 °F 29.92 in NNE 6.0 mph 10.0 mph 57% 0.00 in
18:50 71.2 °F 55.7 °F 29.92 in North 4.0 mph 6.0 mph 58% 0.00 in
18:55 71.5 °F 55.5 °F 29.92 in North 3.0 mph 5.0 mph 57% 0.00 in
19:00 71.4 °F 55.4 °F 29.92 in North 5.0 mph 6.0 mph 57% 0.00 in
19:05 71.2 °F 55.7 °F 29.92 in North 5.0 mph 5.0 mph 58% 0.00 in
19:10 70.7 °F 55.2 °F 29.92 in NNW 4.0 mph 6.0 mph 58% 0.00 in
19:15 70.4 °F 55.4 °F 29.92 in NNE 2.0 mph 7.0 mph 59% 0.00 in
19:16 70.4 °F 55.4 °F 29.92 in NNW 3.0 mph 7.0 mph 59% 0.00 in
19:21 70.3 °F 54.8 °F 29.92 in North 5.0 mph 5.0 mph 58% 0.00 in
19:26 70.3 °F 55.8 °F 29.92 in North 1.0 mph 3.0 mph 60% 0.00 in
19:31 70.1 °F 55.6 °F 29.92 in North 2.0 mph 3.0 mph 60% 0.00 in
19:36 69.7 °F 55.7 °F 29.92 in North 2.0 mph 4.0 mph 61% 0.00 in
19:41 69.3 °F 55.3 °F 29.93 in North 2.0 mph 4.0 mph 61% 0.00 in
19:46 68.9 °F 54.9 °F 29.93 in NW 1.0 mph 3.0 mph 61% 0.00 in
19:51 68.4 °F 54.9 °F 29.92 in NNW 2.0 mph 4.0 mph 62% 0.00 in
19:56 68.0 °F 55.0 °F 29.93 in North 2.0 mph 4.0 mph 63% 0.00 in
20:01 67.7 °F 54.7 °F 29.93 in NNE 3.0 mph 3.0 mph 63% 0.00 in
20:06 67.4 °F 54.4 °F 29.93 in NNW 3.0 mph 3.0 mph 63% 0.00 in
20:11 67.3 °F 54.3 °F 29.93 in NNW 2.0 mph 3.0 mph 63% 0.00 in
20:17 67.1 °F 54.1 °F 29.93 in NNW 2.0 mph 4.0 mph 63% 0.00 in
20:22 66.9 °F 53.9 °F 29.93 in NNW 2.0 mph 2.0 mph 63% 0.00 in
20:27 66.6 °F 54.1 °F 29.93 in North 2.0 mph 4.0 mph 64% 0.00 in
20:32 66.3 °F 53.8 °F 29.93 in NNW 2.0 mph 2.0 mph 64% 0.00 in
20:37 66.0 °F 53.9 °F 29.94 in North 1.0 mph 3.0 mph 65% 0.00 in
20:42 65.8 °F 53.7 °F 29.94 in North 3.0 mph 3.0 mph 65% 0.00 in
20:47 65.7 °F 53.6 °F 29.94 in NNW 2.0 mph 4.0 mph 65% 0.00 in
20:52 65.7 °F 53.6 °F 29.94 in NNW 3.0 mph 3.0 mph 65% 0.00 in
20:57 65.6 °F 53.5 °F 29.95 in North 2.0 mph 4.0 mph 65% 0.00 in
21:02 65.2 °F 53.6 °F 29.94 in NNW 2.0 mph 3.0 mph 66% 0.00 in
21:07 65.0 °F 53.4 °F 29.95 in North 2.0 mph 4.0 mph 66% 0.00 in
21:12 64.8 °F 53.6 °F 29.95 in NNW 4.0 mph 4.0 mph 67% 0.00 in
21:17 64.7 °F 53.5 °F 29.95 in NNW 2.0 mph 3.0 mph 67% 0.00 in
21:22 64.5 °F 53.7 °F 29.95 in NNW 4.0 mph 4.0 mph 68% 0.00 in
21:27 63.9 °F 53.5 °F 29.96 in NNE 1.0 mph 3.0 mph 69% 0.00 in
21:32 63.7 °F 53.7 °F 29.96 in North 4.0 mph 5.0 mph 70% 0.00 in
21:37 63.6 °F 53.7 °F 29.96 in North 4.0 mph 6.0 mph 70% 0.00 in
21:42 63.5 °F 53.5 °F 29.97 in NNW 3.0 mph 6.0 mph 70% 0.00 in
21:47 63.4 °F 53.5 °F 29.97 in NNW 6.0 mph 7.0 mph 70% 0.00 in
21:53 63.2 °F 53.7 °F 29.97 in NNE 6.0 mph 6.0 mph 71% 0.00 in
21:58 62.8 °F 54.0 °F 29.97 in North 5.0 mph 7.0 mph 73% 0.00 in
22:03 62.4 °F 54.0 °F 29.97 in NNW 4.0 mph 5.0 mph 74% 0.00 in
22:08 62.2 °F 54.2 °F 29.97 in NNW 4.0 mph 7.0 mph 75% 0.00 in
22:14 62.0 °F 54.4 °F 29.98 in NW 5.0 mph 6.0 mph 76% 0.00 in
22:19 62.0 °F 54.4 °F 29.98 in North 3.0 mph 9.0 mph 76% 0.00 in
22:24 61.9 °F 54.3 °F 29.98 in NNW 6.0 mph 8.0 mph 76% 0.00 in
22:29 61.8 °F 54.5 °F 29.99 in NNW 7.0 mph 11.0 mph 77% 0.00 in
22:34 61.8 °F 54.5 °F 29.99 in NNW 4.0 mph 7.0 mph 77% 0.00 in
22:39 61.7 °F 54.4 °F 29.99 in North 5.0 mph 9.0 mph 77% 0.00 in
22:44 61.6 °F 54.3 °F 29.99 in North 4.0 mph 11.0 mph 77% 0.00 in
22:49 61.4 °F 54.1 °F 29.99 in North 6.0 mph 9.0 mph 77% 0.00 in
22:54 61.2 °F 53.9 °F 29.99 in NNW 4.0 mph 7.0 mph 77% 0.00 in
22:59 61.0 °F 54.1 °F 30.00 in NNE 4.0 mph 7.0 mph 78% 0.00 in
23:04 60.8 °F 53.9 °F 30.00 in North 4.0 mph 4.0 mph 78% 0.00 in
23:09 60.5 °F 54.0 °F 30.00 in NNE 3.0 mph 6.0 mph 79% 0.00 in
23:15 60.2 °F 53.7 °F 30.00 in NNW 4.0 mph 4.0 mph 79% 0.00 in
23:20 59.9 °F 53.7 °F 30.00 in North 2.0 mph 4.0 mph 80% 0.00 in
23:25 59.6 °F 53.4 °F 30.00 in North 3.0 mph 4.0 mph 80% 0.00 in
23:30 59.3 °F 53.5 °F 30.00 in NNW 2.0 mph 4.0 mph 81% 0.00 in
23:35 59.2 °F 53.4 °F 30.00 in NNE 3.0 mph 4.0 mph 81% 0.00 in
23:40 59.1 °F 53.3 °F 30.00 in NNW 3.0 mph 4.0 mph 81% 0.00 in
23:45 59.0 °F 53.5 °F 30.00 in NNE 2.0 mph 3.0 mph 82% 0.00 in
23:46 59.0 °F 53.5 °F 30.00 in North 2.0 mph 3.0 mph 82% 0.00 in
23:51 58.7 °F 53.2 °F 30.00 in North 1.0 mph 3.0 mph 82% 0.00 in
23:56 58.6 °F 53.1 °F 30.00 in North 2.0 mph 3.0 mph 82% 0.00 in
Compliments of Weather Underground